createdAt,value
2023-02-05T00:01:38.338Z,101134.59
2023-02-05T00:04:07.328Z,101135.66
2023-02-05T00:06:36.492Z,101131.00
2023-02-05T00:09:05.477Z,101128.31
2023-02-05T00:11:34.165Z,101125.47
2023-02-05T00:14:03.000Z,101130.03
2023-02-05T00:16:35.733Z,101126.28
2023-02-05T00:19:04.540Z,101132.16
2023-02-05T00:21:33.295Z,101134.91
2023-02-05T00:24:02.096Z,101122.47
2023-02-05T00:26:30.757Z,101120.66
2023-02-05T00:28:59.498Z,101122.09
2023-02-05T00:31:29.778Z,101121.25
2023-02-05T00:34:00.132Z,101122.09
2023-02-05T00:36:28.998Z,101128.72
2023-02-05T00:38:57.758Z,101126.94
2023-02-05T00:41:26.501Z,101124.06
2023-02-05T00:43:55.253Z,101126.25
2023-02-05T00:46:24.047Z,101119.03
2023-02-05T00:48:54.895Z,101132.47
2023-02-05T00:51:44.872Z,101135.72
2023-02-05T00:54:13.707Z,101147.94
2023-02-05T00:56:42.459Z,101151.56
2023-02-05T00:59:11.260Z,101151.00
2023-02-05T01:01:40.103Z,101150.25
2023-02-05T01:04:08.853Z,101145.44
2023-02-05T01:06:37.536Z,101147.06
2023-02-05T01:09:07.721Z,101140.56
2023-02-05T01:11:36.535Z,101142.44
2023-02-05T01:14:05.423Z,101148.41
2023-02-05T01:16:34.257Z,101150.25
2023-02-05T01:19:03.251Z,101150.69
2023-02-05T01:21:32.084Z,101146.38
2023-02-05T01:24:01.792Z,101143.53
2023-02-05T01:26:32.091Z,101139.09
2023-02-05T01:29:17.231Z,101143.09
2023-02-05T01:31:46.339Z,101138.59
2023-02-05T01:34:15.486Z,101132.19
2023-02-05T01:36:44.811Z,101133.88
2023-02-05T01:39:13.576Z,101138.94
2023-02-05T01:41:45.709Z,101129.56
2023-02-05T01:44:18.613Z,101125.72
2023-02-05T01:46:49.439Z,101119.81
2023-02-05T01:49:26.469Z,101114.25
2023-02-05T01:52:00.492Z,101109.94
2023-02-05T01:54:33.836Z,101101.38
2023-02-05T01:57:09.038Z,101096.78
2023-02-05T01:59:42.255Z,101095.63
2023-02-05T02:02:11.549Z,101098.69
2023-02-05T02:09:30.956Z,101083.66
2023-02-05T02:12:03.666Z,101080.09
2023-02-05T02:14:37.454Z,101080.94
2023-02-05T02:17:10.393Z,101071.09
2023-02-05T02:19:47.752Z,101067.75
2023-02-05T02:23:08.216Z,101068.25
2023-02-05T02:26:25.219Z,101069.34
2023-02-05T02:29:01.794Z,101062.09
2023-02-05T02:31:39.865Z,101054.97
2023-02-05T02:34:19.603Z,101056.84
2023-02-05T02:36:58.336Z,101054.09
2023-02-05T02:39:33.594Z,101050.00
2023-02-05T02:42:11.143Z,101049.25
2023-02-05T02:44:50.101Z,101047.16
2023-02-05T02:47:23.802Z,101039.81
2023-02-05T02:49:57.902Z,101032.25
2023-02-05T02:52:56.785Z,101028.16
2023-02-05T02:55:27.913Z,101028.25
2023-02-05T02:57:59.193Z,101019.94
2023-02-05T03:00:31.222Z,101016.50
2023-02-05T03:03:08.271Z,101013.13
2023-02-05T03:05:39.436Z,101013.56
2023-02-05T03:08:18.268Z,101009.97
2023-02-05T03:10:55.306Z,101015.53
2023-02-05T03:13:24.326Z,101017.44
2023-02-05T03:20:44.308Z,101014.59
2023-02-05T03:23:13.399Z,101008.31
2023-02-05T03:25:42.263Z,100999.75
2023-02-05T03:28:12.624Z,101007.22
2023-02-05T03:30:56.408Z,101007.88
2023-02-05T03:33:44.887Z,100995.47
2023-02-05T03:36:27.648Z,101004.09
2023-02-05T03:39:20.353Z,101008.50
2023-02-05T03:42:09.893Z,101007.03
2023-02-05T03:45:20.656Z,101005.25
2023-02-05T03:48:23.128Z,101005.31
2023-02-05T03:52:17.164Z,101017.91
2023-02-05T03:55:00.942Z,101017.00
2023-02-05T03:57:40.162Z,101017.16
2023-02-05T04:00:12.488Z,101015.94
2023-02-05T04:02:47.273Z,101009.97
2023-02-05T04:09:49.711Z,101006.00
2023-02-05T04:12:18.701Z,101009.28
2023-02-05T04:14:48.516Z,101017.91
2023-02-05T04:17:17.396Z,101025.13
2023-02-05T04:19:46.814Z,101015.50
2023-02-05T04:22:17.120Z,101018.53
2023-02-05T04:25:20.726Z,101008.06
2023-02-05T04:27:51.934Z,101016.38
2023-02-05T04:30:21.782Z,101008.25
2023-02-05T04:32:50.721Z,101014.94
2023-02-05T04:35:20.309Z,101023.38
2023-02-05T04:37:50.404Z,101031.78
2023-02-05T04:40:21.540Z,101033.38
2023-02-05T04:42:51.031Z,101030.78
2023-02-05T04:45:20.014Z,101027.00
2023-02-05T04:47:48.967Z,101015.28
2023-02-05T04:50:18.530Z,101022.97
2023-02-05T04:52:47.225Z,101025.19
2023-02-05T04:55:16.537Z,101027.63
2023-02-05T04:57:52.516Z,101027.97
2023-02-05T05:00:22.366Z,101036.41
2023-02-05T05:02:51.392Z,101041.28
2023-02-05T05:05:20.881Z,101037.94
2023-02-05T05:07:57.635Z,101045.34
2023-02-05T05:10:27.406Z,101042.69
2023-02-05T05:12:57.806Z,101035.88
2023-02-05T05:15:26.754Z,101041.47
2023-02-05T05:18:03.549Z,101033.47
2023-02-05T05:26:16.654Z,101047.34
2023-02-05T05:28:47.177Z,101053.19
2023-02-05T05:31:20.057Z,101056.34
2023-02-05T05:33:58.286Z,101051.00
2023-02-05T05:36:37.426Z,101051.56
2023-02-05T05:42:30.509Z,101042.06
2023-02-05T05:45:53.758Z,101040.66
2023-02-05T05:48:22.922Z,101030.56
2023-02-05T05:50:52.253Z,101024.88
2023-02-05T05:53:21.158Z,101028.06
2023-02-05T05:55:56.543Z,101023.09
2023-02-05T05:58:26.108Z,101030.16
2023-02-05T06:00:56.808Z,101033.19
2023-02-05T06:03:27.100Z,101033.84
2023-02-05T06:05:56.606Z,101028.38
2023-02-05T06:08:25.506Z,101037.38
2023-02-05T06:10:55.666Z,101026.75
2023-02-05T06:13:25.010Z,101036.44
2023-02-05T06:16:24.675Z,101047.16
2023-02-05T06:18:53.977Z,101042.22
2023-02-05T06:21:23.371Z,101050.19
2023-02-05T06:28:43.098Z,101054.75
2023-02-05T06:31:16.046Z,101054.31
2023-02-05T06:33:46.598Z,101057.25
2023-02-05T06:36:18.451Z,101052.66
2023-02-05T06:38:58.158Z,101053.47
2023-02-05T06:41:27.240Z,101049.88
2023-02-05T06:43:56.365Z,101060.97
2023-02-05T06:46:43.187Z,101061.84
2023-02-05T06:51:14.467Z,101059.69
2023-02-05T06:53:57.234Z,101056.63
2023-02-05T07:00:48.680Z,101046.50
2023-02-05T07:03:17.468Z,101049.47
2023-02-05T07:05:46.324Z,101042.13
2023-02-05T07:08:46.976Z,101049.25
2023-02-05T07:11:15.725Z,101047.16
2023-02-05T07:13:44.505Z,101047.47
2023-02-05T07:16:18.531Z,101048.66
2023-02-05T07:18:47.548Z,101042.13
2023-02-05T07:21:18.506Z,101050.53
2023-02-05T07:23:51.118Z,101054.41
2023-02-05T07:26:32.204Z,101054.31
2023-02-05T07:29:01.050Z,101052.22
2023-02-05T07:31:35.047Z,101047.06
2023-02-05T07:34:04.327Z,101042.13
2023-02-05T07:36:33.131Z,101037.72
2023-02-05T07:39:03.343Z,101033.41
2023-02-05T07:41:32.124Z,101034.16
2023-02-05T07:44:00.916Z,101035.81
2023-02-05T07:46:29.769Z,101035.63
2023-02-05T07:48:58.582Z,101036.03
2023-02-05T07:51:27.422Z,101041.28
2023-02-05T07:53:56.099Z,101044.84
2023-02-05T07:56:40.207Z,101053.44
2023-02-05T07:59:09.452Z,101049.44
2023-02-05T08:01:38.401Z,101051.09
2023-02-05T08:04:07.375Z,101047.22
2023-02-05T08:06:47.638Z,101049.75
2023-02-05T08:09:16.979Z,101055.31
2023-02-05T08:11:54.352Z,101048.16
2023-02-05T08:14:23.196Z,101052.78
2023-02-05T08:16:52.050Z,101047.09
2023-02-05T08:19:20.981Z,101027.94
2023-02-05T08:21:49.696Z,101022.91
2023-02-05T08:24:19.361Z,101014.50
2023-02-05T08:26:48.480Z,101009.94
2023-02-05T08:29:18.946Z,101007.75
2023-02-05T08:31:47.869Z,101010.25
2023-02-05T08:34:19.283Z,101004.75
2023-02-05T08:36:49.546Z,101000.53
2023-02-05T08:39:30.572Z,100985.41
2023-02-05T08:41:59.407Z,100978.53
2023-02-05T08:44:30.034Z,100976.91
2023-02-05T08:46:58.795Z,100966.38
2023-02-05T08:49:54.703Z,100962.91
2023-02-05T08:52:25.450Z,100958.81
2023-02-05T08:54:54.451Z,100968.84
2023-02-05T08:57:23.372Z,100964.47
2023-02-05T08:59:53.747Z,100966.88
2023-02-05T09:02:22.536Z,100973.06
2023-02-05T09:05:01.839Z,100971.78
2023-02-05T09:07:36.578Z,100974.53
2023-02-05T09:10:05.621Z,100969.06
2023-02-05T09:12:34.318Z,100960.81
2023-02-05T09:15:07.133Z,100958.56
2023-02-05T09:17:43.490Z,100958.47
2023-02-05T09:20:14.090Z,100966.00
2023-02-05T09:22:43.061Z,100951.19
2023-02-05T09:25:12.254Z,100954.84
2023-02-05T09:27:41.196Z,100944.06
2023-02-05T09:30:13.774Z,100946.59
2023-02-05T09:32:42.499Z,100945.03
2023-02-05T09:35:11.190Z,100944.06
2023-02-05T09:37:40.333Z,100946.38
2023-02-05T09:40:20.995Z,100934.75
2023-02-05T09:43:04.558Z,100935.00
2023-02-05T09:45:59.169Z,100932.47
2023-02-05T09:48:50.476Z,100938.34
2023-02-05T09:51:26.860Z,100937.97
2023-02-05T09:54:05.846Z,100940.25
2023-02-05T09:56:36.989Z,100935.94
2023-02-05T09:59:06.982Z,100932.31
2023-02-05T10:01:47.373Z,100936.06
2023-02-05T10:04:16.454Z,100927.66
2023-02-05T10:07:20.041Z,100921.56
2023-02-05T10:10:22.683Z,100917.75
2023-02-05T10:13:33.410Z,100914.50
2023-02-05T10:16:43.308Z,100914.22
2023-02-05T10:19:41.268Z,100908.94
2023-02-05T10:22:23.811Z,100905.00
2023-02-05T10:25:34.636Z,100902.13
2023-02-05T10:28:21.604Z,100895.53
2023-02-05T10:30:59.636Z,100888.78
2023-02-05T10:33:48.165Z,100895.53
2023-02-05T10:36:24.046Z,100892.00
2023-02-05T10:38:57.173Z,100886.19
2023-02-05T10:41:33.415Z,100885.16
2023-02-05T10:44:14.887Z,100886.91
2023-02-05T10:46:51.737Z,100882.78
2023-02-05T10:49:28.065Z,100890.66
2023-02-05T10:51:58.190Z,100889.81
2023-02-05T10:54:31.279Z,100879.44
2023-02-05T10:57:01.772Z,100879.22
2023-02-05T10:59:34.820Z,100875.19
2023-02-05T11:02:11.796Z,100879.63
2023-02-05T11:04:47.429Z,100872.66
2023-02-05T11:07:28.554Z,100872.22
2023-02-05T11:09:59.275Z,100872.56
2023-02-05T11:12:32.827Z,100877.38
2023-02-05T11:15:04.078Z,100875.66
2023-02-05T11:17:37.838Z,100867.47
2023-02-05T11:20:23.089Z,100865.09
2023-02-05T11:23:09.549Z,100867.72
2023-02-05T11:25:38.410Z,100871.97
2023-02-05T11:31:28.729Z,100864.50
2023-02-05T11:34:18.412Z,100866.88
2023-02-05T11:36:55.153Z,100861.88
2023-02-05T11:39:36.602Z,100864.38
2023-02-05T11:42:17.256Z,100854.13
2023-02-05T11:44:59.408Z,100851.25
2023-02-05T11:47:36.435Z,100849.50
2023-02-05T11:50:19.371Z,100850.63
2023-02-05T11:52:50.947Z,100854.31
2023-02-05T11:55:33.030Z,100845.94
2023-02-05T11:58:06.208Z,100840.28
2023-02-05T12:00:38.954Z,100830.56
2023-02-05T12:03:19.919Z,100824.28
2023-02-05T12:05:55.548Z,100836.44
2023-02-05T12:08:40.269Z,100833.13
2023-02-05T12:11:58.325Z,100830.34
2023-02-05T12:14:41.333Z,100833.69
2023-02-05T12:17:33.174Z,100829.25
2023-02-05T12:20:20.844Z,100834.19
2023-02-05T12:28:37.409Z,100824.88
2023-02-05T12:31:25.306Z,100834.59
2023-02-05T12:34:17.460Z,100836.53
2023-02-05T12:37:10.176Z,100826.56
2023-02-05T12:39:52.954Z,100819.34
2023-02-05T12:42:33.828Z,100813.50
2023-02-05T12:45:33.703Z,100812.13
2023-02-05T12:48:22.517Z,100811.00
2023-02-05T12:51:08.755Z,100820.56
2023-02-05T12:54:02.355Z,100818.63
2023-02-05T12:56:55.456Z,100818.19
2023-02-05T12:59:36.419Z,100812.31
2023-02-05T13:02:21.125Z,100805.22
2023-02-05T13:05:01.582Z,100803.19
2023-02-05T13:07:37.871Z,100799.38
2023-02-05T13:10:17.051Z,100792.59
2023-02-05T13:12:52.106Z,100797.63
2023-02-05T13:15:24.408Z,100804.03
2023-02-05T13:18:02.576Z,100788.44
2023-02-05T13:20:58.306Z,100789.16
2023-02-05T13:23:46.028Z,100792.47
2023-02-05T13:26:36.884Z,100793.16
2023-02-05T13:29:13.428Z,100791.38
2023-02-05T13:31:51.233Z,100795.00
2023-02-05T13:34:22.993Z,100793.59
2023-02-05T13:37:32.033Z,100789.00
2023-02-05T13:40:57.235Z,100795.41
2023-02-05T13:44:11.978Z,100792.63
2023-02-05T13:47:25.371Z,100789.56
2023-02-05T13:50:45.889Z,100798.75
2023-02-05T13:53:43.930Z,100799.00
2023-02-05T13:56:44.755Z,100814.63
2023-02-05T13:59:23.700Z,100825.75
2023-02-05T14:01:58.091Z,100831.00
2023-02-05T14:04:32.612Z,100827.66
2023-02-05T14:07:09.681Z,100828.94
2023-02-05T14:09:44.545Z,100833.69
2023-02-05T14:12:24.119Z,100828.94
2023-02-05T14:15:36.809Z,100831.16
2023-02-05T14:18:06.193Z,100821.16
2023-02-05T14:20:40.431Z,100825.16
2023-02-05T14:23:59.039Z,100812.91
2023-02-05T14:26:51.722Z,100800.91
2023-02-05T14:29:42.306Z,100804.78
2023-02-05T14:32:13.540Z,100794.75
2023-02-05T14:35:02.226Z,100798.91
2023-02-05T14:37:43.470Z,100806.09
2023-02-05T14:40:28.921Z,100803.59
2023-02-05T14:43:10.393Z,100811.59
2023-02-05T14:45:47.960Z,100813.00
2023-02-05T14:48:28.464Z,100827.97
2023-02-05T14:51:11.188Z,100827.63
2023-02-05T14:53:42.521Z,100827.78
2023-02-05T14:56:31.764Z,100838.78
2023-02-05T14:59:07.386Z,100840.28
2023-02-05T15:01:54.246Z,100849.34
2023-02-05T15:04:52.885Z,100851.47
2023-02-05T15:07:28.901Z,100851.75
2023-02-05T15:10:04.489Z,100842.72
2023-02-05T15:12:58.057Z,100850.63
2023-02-05T15:15:33.684Z,100861.19
2023-02-05T15:18:16.131Z,100858.97
2023-02-05T15:20:50.433Z,100862.41
2023-02-05T15:23:36.435Z,100863.81
2023-02-05T15:26:16.745Z,100868.75
2023-02-05T15:29:03.511Z,100854.91
2023-02-05T15:31:45.836Z,100854.97
2023-02-05T15:34:37.501Z,100848.06
2023-02-05T15:37:22.291Z,100845.19
2023-02-05T15:39:56.913Z,100841.78
2023-02-05T15:42:36.050Z,100835.03
2023-02-05T15:45:30.121Z,100839.91
2023-02-05T15:48:04.445Z,100838.56
2023-02-05T15:50:40.066Z,100843.78
2023-02-05T15:53:29.224Z,100844.16
2023-02-05T15:56:08.198Z,100848.09
2023-02-05T15:58:38.356Z,100844.72
2023-02-05T16:01:09.392Z,100848.34
2023-02-05T16:03:40.128Z,100847.78
2023-02-05T16:06:22.099Z,100848.41
2023-02-05T16:09:02.572Z,100835.84
2023-02-05T16:11:35.776Z,100831.13
2023-02-05T16:14:15.035Z,100843.72
2023-02-05T16:17:04.986Z,100859.97
2023-02-05T16:19:45.388Z,100864.03
2023-02-05T16:22:30.669Z,100873.97
2023-02-05T16:25:07.992Z,100868.91
2023-02-05T16:27:45.407Z,100872.19
2023-02-05T16:30:31.108Z,100877.03
2023-02-05T16:33:05.275Z,100884.56
2023-02-05T16:35:40.509Z,100896.03
2023-02-05T16:38:21.224Z,100902.38
2023-02-05T16:40:58.700Z,100910.78
2023-02-05T16:43:38.849Z,100910.75
2023-02-05T16:46:42.693Z,100919.13
2023-02-05T16:52:46.391Z,100918.88
2023-02-05T16:55:44.871Z,100926.81
2023-02-05T16:58:25.348Z,100930.66
2023-02-05T17:01:07.065Z,100937.59
2023-02-05T17:03:43.272Z,100945.06
2023-02-05T17:06:17.517Z,100943.50
2023-02-05T17:09:05.424Z,100937.97
2023-02-05T17:11:46.818Z,100942.66
2023-02-05T17:14:32.410Z,100941.34
2023-02-05T17:17:21.883Z,100943.13
2023-02-05T17:20:35.898Z,100947.78
2023-02-05T17:23:15.527Z,100948.16
2023-02-05T17:26:01.038Z,100961.06
2023-02-05T17:28:46.076Z,100957.94
2023-02-05T17:31:25.371Z,100961.88
2023-02-05T17:36:54.646Z,100963.19
2023-02-05T17:39:27.545Z,100960.47
2023-02-05T17:42:11.992Z,100950.78
2023-02-05T17:44:43.434Z,100955.19
2023-02-05T17:47:13.078Z,100959.03
2023-02-05T17:49:42.045Z,100957.00
2023-02-05T17:52:11.762Z,100953.13
2023-02-05T17:54:41.516Z,100946.81
2023-02-05T17:57:27.832Z,100935.44
2023-02-05T18:00:34.224Z,100945.16
2023-02-05T18:03:11.769Z,100952.69
2023-02-05T18:05:50.483Z,100945.97
2023-02-05T18:08:38.797Z,100936.59
2023-02-05T18:11:16.055Z,100942.13
2023-02-05T18:13:53.130Z,100962.09
2023-02-05T18:23:38.000Z,100972.91
2023-02-05T18:26:11.163Z,100977.34
2023-02-05T18:28:45.151Z,100968.28
2023-02-05T18:31:45.801Z,100962.09
2023-02-05T18:34:16.014Z,100960.94
2023-02-05T18:36:48.932Z,100965.16
2023-02-05T18:39:19.048Z,100962.84
2023-02-05T18:41:51.991Z,100976.13
2023-02-05T18:44:27.474Z,100968.19
2023-02-05T18:47:02.760Z,100978.47
2023-02-05T18:49:38.298Z,100973.25
2023-02-05T18:52:13.215Z,100967.94
2023-02-05T18:55:01.371Z,100971.34
2023-02-05T18:57:37.916Z,100974.72
2023-02-05T19:00:18.919Z,100988.44
2023-02-05T19:03:06.614Z,100997.56
2023-02-05T19:05:42.082Z,101006.78
2023-02-05T19:08:13.204Z,101003.38
2023-02-05T19:14:32.048Z,100998.94
2023-02-05T19:17:07.458Z,100993.97
2023-02-05T19:19:44.317Z,101003.44
2023-02-05T19:22:31.099Z,101007.72
2023-02-05T19:25:11.060Z,101010.47
2023-02-05T19:27:47.091Z,101020.72
2023-02-05T19:30:21.780Z,101022.06
2023-02-05T19:33:07.939Z,101022.47
2023-02-05T19:35:44.073Z,101020.44
2023-02-05T19:38:16.550Z,101020.25
2023-02-05T19:40:51.528Z,101025.28
2023-02-05T19:43:24.328Z,101019.41
2023-02-05T19:46:02.889Z,101015.66
2023-02-05T19:48:39.313Z,101015.34
2023-02-05T19:51:17.994Z,101025.84
2023-02-05T19:53:55.359Z,101024.06
2023-02-05T19:56:30.111Z,101019.63
2023-02-05T19:59:00.433Z,101016.47
2023-02-05T20:01:40.892Z,101023.81
2023-02-05T20:04:22.034Z,101031.72
2023-02-05T20:07:01.934Z,101035.59
2023-02-05T20:09:46.103Z,101031.19
2023-02-05T20:13:54.823Z,101039.94
2023-02-05T20:16:31.069Z,101030.75
2023-02-05T20:19:19.934Z,101031.41
2023-02-05T20:21:51.304Z,101018.06
2023-02-05T20:24:28.023Z,101015.00
2023-02-05T20:27:01.560Z,101024.13
2023-02-05T20:29:50.863Z,101031.00
2023-02-05T20:32:49.398Z,101029.63
2023-02-05T20:35:18.255Z,101035.25
2023-02-05T20:37:47.269Z,101025.53
2023-02-05T20:40:17.729Z,101028.81
2023-02-05T20:42:48.590Z,101028.69
2023-02-05T20:45:18.113Z,101033.09
2023-02-05T20:47:47.673Z,101031.25
2023-02-05T20:50:17.262Z,101026.16
2023-02-05T20:52:49.634Z,101021.81
2023-02-05T20:55:20.119Z,101015.09
2023-02-05T20:57:49.712Z,101015.72
2023-02-05T21:00:21.143Z,101009.50
2023-02-05T21:02:50.279Z,101028.19
2023-02-05T21:05:20.453Z,101026.78
2023-02-05T21:07:49.410Z,101029.59
2023-02-05T21:10:22.352Z,101036.94
2023-02-05T21:12:51.331Z,101033.47
2023-02-05T21:15:20.190Z,101028.13
2023-02-05T21:17:49.095Z,101045.34
2023-02-05T21:20:20.271Z,101041.13
2023-02-05T21:22:49.493Z,101053.66
2023-02-05T21:25:19.810Z,101055.16
2023-02-05T21:27:55.084Z,101063.19
2023-02-05T21:30:24.363Z,101062.69
2023-02-05T21:32:55.011Z,101072.78
2023-02-05T21:35:24.365Z,101076.03
2023-02-05T21:37:53.573Z,101070.97
2023-02-05T21:40:24.291Z,101079.19
2023-02-05T21:42:53.535Z,101094.13
2023-02-05T21:45:22.752Z,101095.44
2023-02-05T21:47:51.887Z,101094.84
2023-02-05T21:50:21.282Z,101104.47
2023-02-05T21:52:50.403Z,101104.00
2023-02-05T21:55:21.215Z,101108.59
2023-02-05T21:57:51.769Z,101121.25
2023-02-05T22:00:21.360Z,101126.19
2023-02-05T22:02:50.329Z,101115.72
2023-02-05T22:05:19.583Z,101117.75
2023-02-05T22:07:48.661Z,101116.19
2023-02-05T22:10:18.290Z,101112.16
2023-02-05T22:12:47.537Z,101112.16
2023-02-05T22:15:18.343Z,101117.69
2023-02-05T22:17:47.070Z,101125.44
2023-02-05T22:20:16.054Z,101137.34
2023-02-05T22:22:44.779Z,101146.63
2023-02-05T22:25:13.458Z,101157.25
2023-02-05T22:27:42.926Z,101147.38
2023-02-05T22:30:13.065Z,101157.94
2023-02-05T22:32:43.231Z,101156.53
2023-02-05T22:35:11.961Z,101145.13
2023-02-05T22:37:40.715Z,101148.09
2023-02-05T22:40:10.872Z,101155.59
2023-02-05T22:42:39.660Z,101144.00
2023-02-05T22:45:09.475Z,101149.16
2023-02-05T22:47:38.453Z,101149.06
2023-02-05T22:50:09.519Z,101143.91
2023-02-05T22:52:38.328Z,101134.66
2023-02-05T22:55:10.627Z,101136.31
2023-02-05T22:57:39.521Z,101130.22
2023-02-05T23:00:09.357Z,101138.38
2023-02-05T23:02:38.255Z,101134.16
2023-02-05T23:05:08.951Z,101145.44
2023-02-05T23:07:37.978Z,101146.56
2023-02-05T23:10:07.527Z,101153.13
2023-02-05T23:12:36.985Z,101154.84
2023-02-05T23:15:06.880Z,101148.97
2023-02-05T23:17:36.291Z,101151.13
2023-02-05T23:20:05.661Z,101154.09
2023-02-05T23:22:36.964Z,101162.41
2023-02-05T23:25:07.119Z,101166.53
2023-02-05T23:27:37.991Z,101163.84
2023-02-05T23:30:08.657Z,101170.47
2023-02-05T23:32:37.477Z,101159.16
2023-02-05T23:35:08.588Z,101154.47
2023-02-05T23:37:39.464Z,101150.13
2023-02-05T23:40:36.092Z,101136.50
2023-02-05T23:43:04.964Z,101146.94
2023-02-05T23:45:33.960Z,101144.28
2023-02-05T23:48:20.106Z,101135.16
2023-02-05T23:50:50.981Z,101131.06
2023-02-05T23:53:22.384Z,101131.44
2023-02-05T23:55:53.990Z,101131.78
2023-02-05T23:58:26.148Z,101133.81
